createdAt,value
2019-02-27T00:00:09.173Z,38.17
2019-02-27T00:02:42.862Z,37.97
2019-02-27T00:05:14.942Z,37.86
2019-02-27T00:07:47.418Z,38.24
2019-02-27T00:10:19.876Z,38.22
2019-02-27T00:12:52.877Z,38.30
2019-02-27T00:15:25.099Z,38.07
2019-02-27T00:17:57.878Z,38.12
2019-02-27T00:20:30.384Z,38.19
2019-02-27T00:23:02.912Z,37.62
2019-02-27T00:25:36.090Z,38.20
2019-02-27T00:28:08.282Z,38.02
2019-02-27T00:30:41.363Z,38.43
2019-02-27T00:33:13.932Z,38.41
2019-02-27T00:35:46.923Z,37.64
2019-02-27T00:38:19.340Z,38.39
2019-02-27T00:40:51.885Z,37.96
2019-02-27T00:43:25.973Z,38.09
2019-02-27T00:45:59.443Z,37.98
2019-02-27T00:48:31.871Z,37.92
2019-02-27T00:51:04.328Z,38.18
2019-02-27T00:53:36.883Z,38.20
2019-02-27T00:56:11.961Z,38.57
2019-02-27T00:58:43.331Z,38.64
2019-02-27T01:01:15.916Z,38.74
2019-02-27T01:03:48.505Z,38.87
2019-02-27T01:06:20.890Z,38.82
2019-02-27T01:08:52.846Z,38.66
2019-02-27T01:11:24.923Z,38.80
2019-02-27T01:13:58.069Z,38.51
2019-02-27T01:16:30.870Z,38.74
2019-02-27T01:19:04.781Z,38.50
2019-02-27T01:21:36.907Z,38.89
2019-02-27T01:24:09.346Z,38.89
2019-02-27T01:26:41.909Z,38.82
2019-02-27T01:29:15.685Z,38.57
2019-02-27T01:31:48.296Z,38.45
2019-02-27T01:34:20.855Z,38.53
2019-02-27T01:36:54.860Z,38.55
2019-02-27T01:39:27.884Z,38.33
2019-02-27T01:42:00.347Z,38.55
2019-02-27T01:44:34.876Z,37.74
2019-02-27T01:47:06.905Z,37.86
2019-02-27T01:49:38.910Z,38.63
2019-02-27T01:52:11.327Z,38.90
2019-02-27T01:54:46.093Z,38.58
2019-02-27T01:57:17.872Z,38.53
2019-02-27T01:59:50.968Z,38.53
2019-02-27T02:02:23.593Z,38.71
2019-02-27T02:04:55.883Z,37.84
2019-02-27T02:07:28.030Z,37.84
2019-02-27T02:10:00.868Z,38.63
2019-02-27T02:12:35.434Z,38.78
2019-02-27T02:16:17.495Z,38.66
2019-02-27T02:19:54.711Z,38.54
2019-02-27T02:23:27.314Z,38.60
2019-02-27T02:27:25.590Z,38.69
2019-02-27T02:30:46.374Z,38.91
2019-02-27T02:33:54.932Z,39.17
2019-02-27T02:37:27.346Z,38.59
2019-02-27T02:40:47.908Z,38.55
2019-02-27T02:44:20.591Z,38.16
2019-02-27T02:48:05.615Z,38.89
2019-02-27T02:51:52.884Z,38.52
2019-02-27T02:55:36.894Z,38.52
2019-02-27T02:59:14.559Z,38.69
2019-02-27T03:02:42.883Z,38.71
2019-02-27T03:06:36.185Z,38.67
2019-02-27T03:10:31.085Z,38.11
2019-02-27T03:14:00.875Z,38.50
2019-02-27T03:18:29.722Z,38.55
2019-02-27T03:22:04.711Z,38.58
2019-02-27T03:25:44.390Z,38.87
2019-02-27T03:29:33.932Z,38.41
2019-02-27T03:33:08.019Z,38.81
2019-02-27T03:37:23.554Z,38.52
2019-02-27T03:41:13.405Z,38.79
2019-02-27T03:44:41.019Z,38.79
2019-02-27T03:47:56.911Z,38.52
2019-02-27T03:51:44.877Z,39.11
2019-02-27T03:55:41.467Z,38.93
2019-02-27T03:59:23.344Z,38.49
2019-02-27T04:02:43.611Z,38.90
2019-02-27T04:06:43.331Z,38.96
2019-02-27T04:09:18.828Z,38.96
2019-02-27T04:11:49.848Z,38.37
2019-02-27T04:14:40.146Z,38.37
2019-02-27T04:17:09.336Z,38.15
2019-02-27T04:19:41.848Z,37.84
2019-02-27T04:22:14.631Z,38.09
2019-02-27T04:24:46.892Z,38.61
2019-02-27T04:27:21.189Z,38.61
2019-02-27T04:29:52.590Z,38.43
2019-02-27T04:32:25.319Z,38.42
2019-02-27T04:34:57.877Z,38.42
2019-02-27T04:37:30.110Z,38.80
2019-02-27T04:40:02.409Z,38.36
2019-02-27T04:42:34.867Z,38.95
2019-02-27T04:45:09.809Z,38.38
2019-02-27T04:47:41.340Z,38.30
2019-02-27T04:50:13.846Z,38.90
2019-02-27T04:52:45.913Z,38.31
2019-02-27T04:55:17.890Z,38.80
2019-02-27T04:57:49.883Z,38.85
2019-02-27T05:00:26.089Z,38.84
2019-02-27T05:02:56.101Z,38.98
2019-02-27T05:05:28.444Z,38.79
2019-02-27T05:08:00.913Z,38.67
2019-02-27T05:10:33.878Z,39.03
2019-02-27T05:13:06.335Z,38.78
2019-02-27T05:15:39.633Z,39.13
2019-02-27T05:18:10.916Z,38.51
2019-02-27T05:20:45.759Z,38.41
2019-02-27T05:23:16.921Z,38.14
2019-02-27T05:25:49.846Z,38.03
2019-02-27T05:28:22.004Z,38.09
2019-02-27T05:30:54.424Z,38.37
2019-02-27T05:33:26.971Z,38.65
2019-02-27T05:35:59.330Z,38.14
2019-02-27T05:38:31.869Z,38.35
2019-02-27T05:41:04.856Z,38.21
2019-02-27T05:43:36.909Z,38.31
2019-02-27T05:46:09.077Z,38.59
2019-02-27T05:48:41.851Z,38.02
2019-02-27T05:51:13.930Z,38.41
2019-02-27T05:53:46.333Z,38.09
2019-02-27T05:56:18.849Z,37.83
2019-02-27T05:58:50.836Z,38.33
2019-02-27T06:01:28.025Z,38.53
2019-02-27T06:04:00.930Z,38.12
2019-02-27T06:06:33.326Z,37.97
2019-02-27T06:09:09.885Z,38.66
2019-02-27T06:11:43.377Z,38.80
2019-02-27T06:14:21.163Z,38.80
2019-02-27T06:17:05.396Z,38.90
2019-02-27T06:19:35.490Z,39.26
2019-02-27T06:22:08.333Z,38.87
2019-02-27T06:24:43.073Z,38.37
2019-02-27T06:27:14.879Z,39.21
2019-02-27T06:29:47.042Z,39.21
2019-02-27T06:32:19.907Z,39.12
2019-02-27T06:34:52.095Z,39.47
2019-02-27T06:37:25.057Z,39.26
2019-02-27T06:40:01.946Z,39.50
2019-02-27T06:42:34.409Z,39.27
2019-02-27T06:45:10.241Z,39.35
2019-02-27T06:47:43.874Z,38.92
2019-02-27T06:50:17.473Z,39.35
2019-02-27T06:52:49.887Z,38.23
2019-02-27T06:55:22.329Z,38.93
2019-02-27T06:57:54.809Z,39.16
2019-02-27T07:00:27.147Z,39.47
2019-02-27T07:02:59.866Z,38.61
2019-02-27T07:05:32.328Z,39.33
2019-02-27T07:08:05.345Z,39.50
2019-02-27T07:10:38.154Z,39.31
2019-02-27T07:13:10.870Z,39.48
2019-02-27T07:15:47.763Z,39.13
2019-02-27T07:18:17.467Z,39.52
2019-02-27T07:20:49.978Z,39.34
2019-02-27T07:23:23.653Z,39.24
2019-02-27T07:25:55.935Z,39.22
2019-02-27T07:28:27.895Z,39.05
2019-02-27T07:31:00.101Z,39.16
2019-02-27T07:33:32.499Z,38.85
2019-02-27T07:36:05.357Z,39.08
2019-02-27T07:38:37.916Z,38.80
2019-02-27T07:41:10.530Z,39.20
2019-02-27T07:43:42.867Z,39.10
2019-02-27T07:46:15.325Z,38.75
2019-02-27T07:48:47.861Z,39.27
2019-02-27T07:51:20.842Z,38.75
2019-02-27T07:53:53.836Z,39.12
2019-02-27T07:56:27.359Z,38.81
2019-02-27T07:58:59.888Z,38.73
2019-02-27T08:01:31.908Z,38.91
2019-02-27T08:04:07.006Z,39.03
2019-02-27T08:06:41.418Z,38.63
2019-02-27T08:09:14.105Z,38.46
2019-02-27T08:11:47.381Z,38.46
2019-02-27T08:14:20.902Z,38.45
2019-02-27T08:16:57.120Z,38.58
2019-02-27T08:19:28.042Z,38.73
2019-02-27T08:22:00.891Z,38.73
2019-02-27T08:24:33.767Z,38.83
2019-02-27T08:27:07.093Z,38.38
2019-02-27T08:29:40.325Z,37.65
2019-02-27T08:32:12.841Z,38.73
2019-02-27T08:34:45.301Z,38.40
2019-02-27T08:37:20.199Z,38.46
2019-02-27T08:39:52.037Z,38.31
2019-02-27T08:42:24.283Z,38.08
2019-02-27T08:44:56.886Z,37.95
2019-02-27T08:47:29.153Z,37.59
2019-02-27T08:50:01.870Z,38.18
2019-02-27T08:54:11.069Z,38.11
2019-02-27T08:56:44.142Z,37.89
2019-02-27T08:59:17.878Z,37.44
2019-02-27T09:01:55.391Z,37.44
2019-02-27T09:04:25.293Z,37.55
2019-02-27T09:07:02.329Z,37.55
2019-02-27T09:09:32.832Z,37.14
2019-02-27T09:12:05.010Z,37.14
2019-02-27T09:14:37.323Z,37.53
2019-02-27T09:17:10.372Z,37.24
2019-02-27T09:19:45.504Z,37.21
2019-02-27T09:22:16.862Z,37.48
2019-02-27T09:24:49.374Z,37.48
2019-02-27T09:27:22.031Z,37.87
2019-02-27T09:29:54.897Z,37.47
2019-02-27T09:32:28.324Z,37.23
2019-02-27T09:35:00.863Z,37.72
2019-02-27T09:37:33.866Z,37.52
2019-02-27T09:40:06.839Z,36.85
2019-02-27T09:42:38.895Z,37.25
2019-02-27T09:45:28.612Z,37.73
2019-02-27T09:48:00.927Z,37.69
2019-02-27T09:50:39.842Z,37.69
2019-02-27T09:53:11.899Z,37.51
2019-02-27T09:55:44.297Z,37.14
2019-02-27T09:58:16.882Z,37.17
2019-02-27T10:01:19.846Z,37.45
2019-02-27T10:03:54.535Z,36.76
2019-02-27T10:06:24.934Z,37.62
2019-02-27T10:08:58.994Z,37.50
2019-02-27T10:11:30.896Z,37.68
2019-02-27T10:14:03.089Z,37.58
2019-02-27T10:16:35.721Z,37.33
2019-02-27T10:19:06.713Z,37.53
2019-02-27T10:21:37.880Z,37.22
2019-02-27T10:24:09.838Z,37.06
2019-02-27T10:26:42.330Z,36.96
2019-02-27T10:29:14.807Z,37.55
2019-02-27T10:31:46.789Z,37.43
2019-02-27T10:34:18.939Z,36.38
2019-02-27T10:36:51.066Z,37.06
2019-02-27T10:39:23.912Z,36.41
2019-02-27T10:41:56.000Z,36.50
2019-02-27T10:44:28.320Z,37.20
2019-02-27T10:47:00.949Z,37.31
2019-02-27T10:49:33.314Z,37.35
2019-02-27T10:52:05.866Z,36.24
2019-02-27T10:54:39.418Z,36.99
2019-02-27T10:57:13.425Z,36.61
2019-02-27T10:59:45.883Z,37.09
2019-02-27T11:02:18.011Z,36.19
2019-02-27T11:04:50.281Z,36.85
2019-02-27T11:07:23.104Z,36.09
2019-02-27T11:09:55.430Z,36.73
2019-02-27T11:12:29.431Z,36.07
2019-02-27T11:15:02.324Z,35.66
2019-02-27T11:17:34.904Z,35.66
2019-02-27T11:20:07.475Z,36.40
2019-02-27T11:22:39.921Z,36.16
2019-02-27T11:25:17.002Z,36.55
2019-02-27T11:27:49.338Z,36.08
2019-02-27T11:32:23.938Z,36.37
2019-02-27T11:34:56.895Z,36.37
2019-02-27T11:37:29.338Z,35.61
2019-02-27T11:40:10.541Z,35.85
2019-02-27T11:42:42.920Z,36.36
2019-02-27T11:45:15.469Z,36.32
2019-02-27T11:47:48.210Z,36.31
2019-02-27T11:50:21.123Z,35.56
2019-02-27T11:52:53.875Z,36.06
2019-02-27T11:55:26.323Z,35.78
2019-02-27T11:57:58.884Z,36.36
2019-02-27T12:00:31.512Z,35.57
2019-02-27T12:03:03.863Z,35.60
2019-02-27T12:05:36.394Z,36.83
2019-02-27T12:08:08.922Z,36.95
2019-02-27T12:10:40.983Z,36.20
2019-02-27T12:13:13.328Z,36.00
2019-02-27T12:15:46.337Z,36.29
2019-02-27T12:18:19.095Z,36.35
2019-02-27T12:20:53.950Z,36.97
2019-02-27T12:23:26.096Z,35.71
2019-02-27T12:25:59.953Z,35.71
2019-02-27T12:28:34.045Z,36.13
2019-02-27T12:31:10.942Z,36.25
2019-02-27T12:33:42.670Z,36.26
2019-02-27T12:36:16.045Z,36.60
2019-02-27T12:38:48.923Z,35.58
2019-02-27T12:41:21.665Z,35.58
2019-02-27T12:43:53.841Z,36.63
2019-02-27T12:46:25.959Z,36.63
2019-02-27T12:48:58.011Z,36.32
2019-02-27T12:51:30.478Z,36.45
2019-02-27T12:54:03.310Z,36.46
2019-02-27T12:56:35.912Z,36.33
2019-02-27T12:59:08.048Z,36.49
2019-02-27T13:01:40.336Z,35.72
2019-02-27T13:04:16.106Z,36.55
2019-02-27T13:06:47.129Z,36.80
2019-02-27T13:09:19.894Z,36.80
2019-02-27T13:11:51.912Z,36.38
2019-02-27T13:14:23.865Z,36.34
2019-02-27T13:16:56.064Z,35.92
2019-02-27T13:19:29.359Z,35.78
2019-02-27T13:22:01.893Z,36.34
2019-02-27T13:24:34.341Z,36.35
2019-02-27T13:27:09.368Z,36.29
2019-02-27T13:29:41.438Z,36.21
2019-02-27T13:32:13.879Z,36.47
2019-02-27T13:34:48.306Z,36.52
2019-02-27T13:37:18.819Z,36.38
2019-02-27T13:39:50.844Z,36.33
2019-02-27T13:42:23.326Z,36.31
2019-02-27T13:44:55.899Z,36.49
2019-02-27T13:47:28.695Z,35.89
2019-02-27T13:50:01.921Z,35.97
2019-02-27T13:52:33.933Z,35.87
2019-02-27T13:55:10.856Z,35.88
2019-02-27T13:57:40.356Z,36.15
2019-02-27T14:00:27.881Z,36.12
2019-02-27T14:03:00.335Z,36.19
2019-02-27T14:05:36.138Z,36.11
2019-02-27T14:08:06.921Z,36.04
2019-02-27T14:10:39.075Z,36.04
2019-02-27T14:13:11.518Z,36.13
2019-02-27T14:15:44.096Z,36.27
2019-02-27T14:18:16.856Z,36.22
2019-02-27T14:20:48.903Z,36.21
2019-02-27T14:23:22.106Z,36.11
2019-02-27T14:25:54.675Z,36.13
2019-02-27T14:28:27.335Z,36.04
2019-02-27T14:30:59.958Z,36.04
2019-02-27T14:33:32.813Z,36.09
2019-02-27T14:36:08.328Z,36.04
2019-02-27T14:38:39.331Z,35.74
2019-02-27T14:41:14.569Z,36.08
2019-02-27T14:43:44.796Z,36.11
2019-02-27T14:46:17.891Z,35.99
2019-02-27T14:48:52.375Z,36.00
2019-02-27T14:51:24.851Z,36.09
2019-02-27T14:53:57.024Z,36.13
2019-02-27T14:56:29.324Z,36.19
2019-02-27T14:59:01.877Z,35.41
2019-02-27T15:01:37.322Z,36.07
2019-02-27T15:04:10.103Z,36.08
2019-02-27T15:06:43.284Z,35.03
2019-02-27T15:09:16.336Z,34.15
2019-02-27T15:11:48.912Z,33.23
2019-02-27T15:14:21.011Z,33.50
2019-02-27T15:16:53.096Z,32.51
2019-02-27T15:19:26.927Z,33.04
2019-02-27T15:22:00.337Z,31.67
2019-02-27T15:24:34.932Z,32.74
2019-02-27T15:27:06.919Z,32.49
2019-02-27T15:29:40.296Z,32.49
2019-02-27T15:32:12.812Z,32.67
2019-02-27T15:34:46.009Z,32.77
2019-02-27T15:37:17.737Z,32.41
2019-02-27T15:39:55.922Z,32.41
2019-02-27T15:42:28.364Z,30.82
2019-02-27T15:45:00.848Z,29.41
2019-02-27T15:47:33.900Z,30.68
2019-02-27T15:50:07.334Z,31.56
2019-02-27T15:52:40.677Z,33.28
2019-02-27T15:55:13.969Z,32.36
2019-02-27T15:57:49.311Z,32.89
2019-02-27T16:00:23.324Z,31.90
2019-02-27T16:02:56.102Z,31.64
2019-02-27T16:05:31.254Z,31.94
2019-02-27T16:08:05.755Z,33.36
2019-02-27T16:10:42.692Z,30.59
2019-02-27T16:13:13.885Z,30.22
2019-02-27T16:15:48.537Z,31.10
2019-02-27T16:18:21.017Z,31.20
2019-02-27T16:20:53.890Z,31.26
2019-02-27T16:23:26.384Z,32.08
2019-02-27T16:25:59.326Z,31.87
2019-02-27T16:28:32.007Z,31.92
2019-02-27T16:31:06.328Z,31.67
2019-02-27T16:33:38.826Z,31.15
2019-02-27T16:36:12.871Z,31.02
2019-02-27T16:38:44.834Z,31.50
2019-02-27T16:41:17.285Z,31.75
2019-02-27T16:43:49.886Z,31.52
2019-02-27T16:46:22.890Z,31.23
2019-02-27T16:48:55.321Z,31.33
2019-02-27T16:51:27.889Z,31.83
2019-02-27T16:53:59.884Z,31.39
2019-02-27T16:56:32.016Z,30.65
2019-02-27T16:59:07.460Z,30.75
2019-02-27T17:01:37.950Z,30.71
2019-02-27T17:04:11.419Z,31.18
2019-02-27T17:06:44.034Z,31.90
2019-02-27T17:09:16.909Z,31.90
2019-02-27T17:11:49.002Z,31.24
2019-02-27T17:14:24.392Z,31.27
2019-02-27T17:16:55.864Z,31.23
2019-02-27T17:19:28.432Z,31.27
2019-02-27T17:22:00.886Z,31.85
2019-02-27T17:24:33.054Z,32.70
2019-02-27T17:27:05.060Z,32.58
2019-02-27T17:29:37.289Z,31.47
2019-02-27T17:32:09.814Z,30.59
2019-02-27T17:34:41.798Z,30.38
2019-02-27T17:37:13.737Z,29.94
2019-02-27T17:39:45.508Z,30.18
2019-02-27T17:42:18.530Z,29.69
2019-02-27T17:44:51.309Z,30.16
2019-02-27T17:47:22.902Z,29.68
2019-02-27T17:49:57.422Z,29.77
2019-02-27T17:52:29.351Z,30.17
2019-02-27T17:55:03.494Z,29.71
2019-02-27T17:57:35.141Z,29.93
2019-02-27T18:00:12.926Z,29.69
2019-02-27T18:02:44.761Z,29.74
2019-02-27T18:05:16.429Z,30.12
2019-02-27T18:07:48.393Z,30.54
2019-02-27T18:10:20.324Z,29.51
2019-02-27T18:12:52.301Z,30.26
2019-02-27T18:15:24.312Z,30.42
2019-02-27T18:17:56.445Z,30.91
2019-02-27T18:20:28.433Z,30.71
2019-02-27T18:23:00.367Z,30.38
2019-02-27T18:25:32.730Z,31.84
2019-02-27T18:28:04.632Z,33.76
2019-02-27T18:30:36.803Z,34.75
2019-02-27T18:33:13.534Z,34.75
2019-02-27T18:35:42.794Z,33.28
2019-02-27T18:38:14.806Z,34.44
2019-02-27T18:40:46.785Z,32.50
2019-02-27T18:43:20.862Z,32.59
2019-02-27T18:45:52.762Z,32.23
2019-02-27T18:48:24.744Z,31.63
2019-02-27T18:50:56.011Z,30.89
2019-02-27T18:53:29.301Z,30.58
2019-02-27T18:56:02.662Z,30.59
2019-02-27T18:58:33.597Z,30.44
2019-02-27T19:01:09.696Z,30.45
2019-02-27T19:03:40.723Z,30.45
2019-02-27T19:06:12.334Z,30.75
2019-02-27T19:08:45.053Z,30.73
2019-02-27T19:11:16.780Z,30.53
2019-02-27T19:13:48.774Z,30.86
2019-02-27T19:16:20.759Z,30.65
2019-02-27T19:18:53.362Z,31.14
2019-02-27T19:21:25.300Z,30.80
2019-02-27T19:23:57.063Z,30.88
2019-02-27T19:26:28.789Z,30.46
2019-02-27T19:29:00.301Z,31.59
2019-02-27T19:31:32.398Z,33.62
2019-02-27T19:34:04.307Z,34.03
2019-02-27T19:36:36.308Z,33.09
2019-02-27T19:39:09.296Z,35.01
2019-02-27T19:41:41.303Z,35.08
2019-02-27T19:44:13.537Z,35.19
2019-02-27T19:46:51.770Z,34.61
2019-02-27T19:49:23.271Z,33.98
2019-02-27T19:51:57.751Z,35.61
2019-02-27T19:54:29.747Z,35.83
2019-02-27T19:57:01.843Z,34.74
2019-02-27T19:59:53.302Z,34.54
2019-02-27T20:02:25.866Z,35.68
2019-02-27T20:04:57.750Z,35.91
2019-02-27T20:07:28.544Z,35.45
2019-02-27T20:10:00.350Z,35.77
2019-02-27T20:12:32.639Z,36.40
2019-02-27T20:15:04.416Z,36.06
2019-02-27T20:17:35.633Z,36.11
2019-02-27T20:20:07.768Z,36.24
2019-02-27T20:22:38.607Z,36.24
2019-02-27T20:25:13.754Z,36.07
2019-02-27T20:27:44.908Z,36.07
2019-02-27T20:30:19.634Z,36.52
2019-02-27T20:32:51.861Z,35.34
2019-02-27T20:35:23.757Z,35.34
2019-02-27T20:37:54.648Z,36.66
2019-02-27T20:40:27.830Z,36.00
2019-02-27T20:43:00.309Z,36.00
2019-02-27T20:45:33.029Z,36.58
2019-02-27T20:48:08.869Z,36.34
2019-02-27T20:50:45.295Z,36.60
2019-02-27T20:53:21.052Z,36.11
2019-02-27T20:55:52.323Z,36.44
2019-02-27T20:58:24.933Z,36.52
2019-02-27T21:00:57.872Z,36.38
2019-02-27T21:03:30.343Z,36.38
2019-02-27T21:06:03.041Z,36.54
2019-02-27T21:08:36.122Z,36.73
2019-02-27T21:11:09.881Z,37.19
2019-02-27T21:13:42.398Z,36.59
2019-02-27T21:16:15.066Z,36.37
2019-02-27T21:18:48.055Z,37.28
2019-02-27T21:21:38.828Z,37.01
2019-02-27T21:24:20.143Z,36.85
2019-02-27T21:26:57.954Z,37.22
2019-02-27T21:29:31.851Z,36.82
2019-02-27T21:32:04.449Z,36.66
2019-02-27T21:34:37.028Z,36.84
2019-02-27T21:37:09.991Z,36.88
2019-02-27T21:39:42.920Z,37.04
2019-02-27T21:42:18.375Z,36.91
2019-02-27T21:44:49.905Z,37.07
2019-02-27T21:47:22.361Z,37.08
2019-02-27T21:49:54.930Z,36.38
2019-02-27T21:52:27.545Z,37.21
2019-02-27T21:54:59.882Z,36.67
2019-02-27T21:57:32.049Z,36.67
2019-02-27T22:00:05.356Z,37.38
2019-02-27T22:02:38.099Z,37.25
2019-02-27T22:05:11.623Z,37.01
2019-02-27T22:07:43.995Z,37.50
2019-02-27T22:10:19.562Z,37.50
2019-02-27T22:12:51.934Z,37.18
2019-02-27T22:15:28.427Z,37.18
2019-02-27T22:18:01.106Z,37.26
2019-02-27T22:20:35.672Z,37.33
2019-02-27T22:23:08.337Z,37.10
2019-02-27T22:25:41.122Z,37.10
2019-02-27T22:28:17.220Z,37.18
2019-02-27T22:30:51.346Z,36.90
2019-02-27T22:33:24.055Z,37.06
2019-02-27T22:35:56.300Z,37.79
2019-02-27T22:38:28.905Z,37.45
2019-02-27T22:41:01.393Z,37.40
2019-02-27T22:43:35.117Z,36.73
2019-02-27T22:46:07.884Z,37.63
2019-02-27T22:48:40.913Z,37.90
2019-02-27T22:51:13.522Z,37.21
2019-02-27T22:53:45.919Z,37.89
2019-02-27T22:56:18.336Z,37.29
2019-02-27T22:58:51.657Z,37.12
2019-02-27T23:01:35.725Z,37.70
2019-02-27T23:04:09.791Z,38.15
2019-02-27T23:06:47.010Z,37.63
2019-02-27T23:09:18.911Z,37.41
2019-02-27T23:11:51.173Z,37.67
2019-02-27T23:14:23.873Z,37.36
2019-02-27T23:16:57.019Z,37.87
2019-02-27T23:19:29.928Z,37.16
2019-02-27T23:22:02.713Z,37.35
2019-02-27T23:24:36.299Z,37.40
2019-02-27T23:27:08.930Z,37.45
2019-02-27T23:29:42.098Z,37.18
2019-02-27T23:32:15.356Z,37.33
2019-02-27T23:34:47.907Z,38.03
2019-02-27T23:37:20.110Z,37.86
2019-02-27T23:39:53.327Z,37.96
2019-02-27T23:42:27.919Z,37.81
2019-02-27T23:45:00.853Z,37.55
2019-02-27T23:47:33.014Z,38.05
2019-02-27T23:50:05.644Z,38.01
2019-02-27T23:52:39.335Z,36.93
2019-02-27T23:55:11.663Z,36.93
2019-02-27T23:57:43.919Z,37.86
